createdAt,value
2022-12-25T00:02:30.006Z,4.40
2022-12-25T00:05:27.492Z,5.90
2022-12-25T00:08:25.250Z,4.00
2022-12-25T00:11:22.681Z,5.90
2022-12-25T00:14:20.403Z,5.50
2022-12-25T00:17:18.151Z,5.20
2022-12-25T00:20:15.584Z,2.50
2022-12-25T00:23:13.292Z,4.90
2022-12-25T00:26:10.722Z,4.50
2022-12-25T00:29:08.359Z,2.00
2022-12-25T00:32:05.793Z,2.10
2022-12-25T00:35:03.566Z,4.10
2022-12-25T00:38:01.024Z,2.90
2022-12-25T00:40:58.756Z,3.50
2022-12-25T00:43:56.778Z,4.80
2022-12-25T00:46:54.335Z,7.20
2022-12-25T00:49:52.174Z,6.60
2022-12-25T00:52:49.607Z,8.60
2022-12-25T00:55:47.296Z,6.20
2022-12-25T00:58:44.730Z,13.10
2022-12-25T01:01:42.573Z,11.50
2022-12-25T01:04:40.443Z,11.00
2022-12-25T01:07:37.897Z,9.50
2022-12-25T01:10:35.591Z,8.30
2022-12-25T01:13:34.713Z,9.00
2022-12-25T01:16:32.454Z,8.70
2022-12-25T01:19:29.937Z,6.20
2022-12-25T01:22:27.701Z,6.90
2022-12-25T01:25:25.147Z,7.00
2022-12-25T01:28:22.761Z,7.00
2022-12-25T01:31:20.424Z,8.50
2022-12-25T01:34:17.874Z,5.80
2022-12-25T01:37:15.618Z,5.90
2022-12-25T01:40:13.062Z,3.40
2022-12-25T01:43:17.054Z,4.20
2022-12-25T01:46:16.516Z,6.20
2022-12-25T01:49:14.148Z,2.50
2022-12-25T01:52:11.791Z,2.40
2022-12-25T01:55:12.261Z,9.40
2022-12-25T01:58:10.025Z,2.50
2022-12-25T02:01:07.561Z,4.70
2022-12-25T02:04:05.282Z,3.70
2022-12-25T02:07:02.720Z,2.70
2022-12-25T02:10:00.460Z,2.90
2022-12-25T02:12:57.933Z,3.00
2022-12-25T02:15:55.618Z,4.10
2022-12-25T02:18:53.077Z,2.20
2022-12-25T02:21:50.715Z,3.70
2022-12-25T02:24:48.366Z,1.90
2022-12-25T02:27:45.828Z,3.60
2022-12-25T02:30:43.524Z,3.60
2022-12-25T02:33:59.012Z,4.10
2022-12-25T02:36:56.747Z,2.90
2022-12-25T02:40:00.451Z,4.90
2022-12-25T02:43:16.023Z,6.10
2022-12-25T02:46:31.408Z,4.90
2022-12-25T02:49:46.736Z,2.40
2022-12-25T02:53:02.171Z,5.70
2022-12-25T02:56:17.189Z,2.70
2022-12-25T02:59:32.498Z,2.60
2022-12-25T03:02:47.714Z,3.90
2022-12-25T03:06:03.153Z,1.50
2022-12-25T03:09:20.930Z,3.40
2022-12-25T03:12:18.374Z,1.90
2022-12-25T03:15:36.113Z,4.50
2022-12-25T03:18:33.895Z,3.10
2022-12-25T03:21:49.161Z,4.00
2022-12-25T03:25:04.578Z,3.60
2022-12-25T03:28:02.018Z,2.40
2022-12-25T03:31:15.124Z,4.30
2022-12-25T03:34:30.665Z,3.50
2022-12-25T03:37:45.084Z,2.60
2022-12-25T03:41:00.447Z,4.00
2022-12-25T03:44:30.502Z,3.20
2022-12-25T03:47:45.805Z,2.00
2022-12-25T03:51:01.164Z,3.00
2022-12-25T03:54:16.538Z,2.30
2022-12-25T03:57:31.792Z,1.90
2022-12-25T04:00:47.441Z,6.30
2022-12-25T04:04:02.372Z,6.50
2022-12-25T04:07:22.788Z,5.80
2022-12-25T04:10:37.988Z,3.80
2022-12-25T04:13:53.525Z,2.00
2022-12-25T04:17:08.887Z,5.40
2022-12-25T04:20:24.265Z,2.40
2022-12-25T04:23:39.597Z,1.90
2022-12-25T04:26:54.610Z,2.40
2022-12-25T04:30:10.325Z,4.20
2022-12-25T04:33:37.354Z,3.20
2022-12-25T04:36:34.790Z,2.00
2022-12-25T04:39:32.521Z,3.80
2022-12-25T04:42:29.954Z,2.60
2022-12-25T04:45:27.632Z,2.80
2022-12-25T04:48:25.062Z,3.80
2022-12-25T04:51:22.851Z,2.90
2022-12-25T04:54:20.296Z,3.70
2022-12-25T04:57:18.499Z,3.60
2022-12-25T05:00:16.339Z,3.10
2022-12-25T05:03:13.897Z,7.10
2022-12-25T05:06:11.680Z,4.00
2022-12-25T05:09:09.177Z,2.70
2022-12-25T05:12:06.844Z,3.30
2022-12-25T05:15:04.325Z,4.20
2022-12-25T05:18:02.032Z,3.10
2022-12-25T05:20:59.449Z,1.50
2022-12-25T05:23:57.164Z,2.40
2022-12-25T05:26:54.588Z,1.30
2022-12-25T05:29:52.296Z,3.90
2022-12-25T05:32:49.727Z,2.00
2022-12-25T05:35:47.535Z,2.00
2022-12-25T05:38:45.266Z,2.00
2022-12-25T05:41:42.704Z,2.80
2022-12-25T05:44:40.404Z,4.00
2022-12-25T05:47:37.825Z,2.90
2022-12-25T05:50:35.558Z,5.20
2022-12-25T05:53:33.115Z,2.40
2022-12-25T05:56:30.865Z,4.70
2022-12-25T05:59:28.598Z,2.60
2022-12-25T06:02:26.190Z,6.80
2022-12-25T06:05:24.125Z,3.80
2022-12-25T06:08:21.574Z,3.10
2022-12-25T06:11:19.286Z,5.00
2022-12-25T06:14:16.769Z,3.60
2022-12-25T06:17:14.503Z,4.70
2022-12-25T06:20:11.938Z,3.80
2022-12-25T06:23:09.683Z,2.50
2022-12-25T06:26:07.196Z,4.10
2022-12-25T06:29:04.966Z,4.50
2022-12-25T06:32:02.701Z,5.10
2022-12-25T06:35:00.310Z,2.80
2022-12-25T06:37:58.177Z,2.50
2022-12-25T06:40:55.626Z,1.00
2022-12-25T06:43:53.299Z,2.10
2022-12-25T06:46:51.071Z,4.00
2022-12-25T06:49:48.497Z,4.20
2022-12-25T06:52:46.273Z,5.10
2022-12-25T06:55:43.708Z,5.40
2022-12-25T06:58:41.393Z,1.30
2022-12-25T07:01:38.919Z,6.00
2022-12-25T07:04:38.473Z,1.80
2022-12-25T07:07:35.914Z,5.50
2022-12-25T07:10:33.615Z,7.00
2022-12-25T07:13:31.083Z,3.60
2022-12-25T07:16:28.827Z,3.50
2022-12-25T07:19:26.570Z,5.10
2022-12-25T07:22:23.964Z,3.70
2022-12-25T07:25:21.559Z,5.70
2022-12-25T07:28:18.984Z,3.10
2022-12-25T07:31:16.766Z,6.50
2022-12-25T07:34:14.294Z,5.80
2022-12-25T07:37:11.912Z,2.90
2022-12-25T07:40:09.331Z,5.70
2022-12-25T07:43:07.096Z,4.20
2022-12-25T07:46:05.140Z,7.40
2022-12-25T07:49:02.875Z,5.20
2022-12-25T07:52:00.310Z,3.50
2022-12-25T07:54:58.073Z,4.20
2022-12-25T07:57:55.491Z,3.20
2022-12-25T08:00:53.365Z,2.80
2022-12-25T08:03:51.692Z,2.00
2022-12-25T08:06:49.329Z,5.80
2022-12-25T08:09:46.957Z,4.10
2022-12-25T08:12:44.404Z,5.30
2022-12-25T08:15:42.235Z,3.50
2022-12-25T08:18:39.668Z,4.60
2022-12-25T08:21:37.450Z,3.90
2022-12-25T08:24:34.875Z,3.80
2022-12-25T08:27:32.677Z,4.80
2022-12-25T08:30:30.422Z,3.40
2022-12-25T08:33:28.318Z,6.40
2022-12-25T08:36:26.076Z,7.60
2022-12-25T08:39:23.527Z,8.50
2022-12-25T08:42:21.306Z,9.30
2022-12-25T08:45:18.735Z,8.90
2022-12-25T08:48:16.468Z,10.00
2022-12-25T08:51:15.634Z,9.50
2022-12-25T08:54:13.524Z,8.10
2022-12-25T08:57:10.951Z,5.80
2022-12-25T09:00:09.242Z,7.80
2022-12-25T09:03:06.763Z,10.10
2022-12-25T09:06:04.557Z,9.20
2022-12-25T09:09:02.252Z,10.70
2022-12-25T09:11:59.673Z,10.00
2022-12-25T09:14:57.467Z,11.10
2022-12-25T09:17:54.894Z,10.30
2022-12-25T09:20:52.682Z,10.40
2022-12-25T09:23:50.448Z,9.80
2022-12-25T09:26:47.867Z,10.00
2022-12-25T09:29:45.582Z,6.30
2022-12-25T09:32:43.032Z,7.50
2022-12-25T09:35:40.618Z,6.30
2022-12-25T09:38:38.067Z,6.80
2022-12-25T09:41:35.685Z,6.00
2022-12-25T09:44:33.139Z,10.60
2022-12-25T09:47:30.848Z,5.70
2022-12-25T09:50:28.250Z,7.00
2022-12-25T09:53:25.846Z,7.70
2022-12-25T09:56:25.861Z,6.30
2022-12-25T09:59:23.277Z,12.50
2022-12-25T10:02:21.330Z,11.30
2022-12-25T10:05:18.981Z,7.30
2022-12-25T10:08:16.601Z,9.00
2022-12-25T10:11:14.046Z,9.60
2022-12-25T10:14:11.776Z,8.50
2022-12-25T10:17:09.540Z,6.60
2022-12-25T10:20:08.348Z,5.60
2022-12-25T10:23:05.957Z,10.70
2022-12-25T10:26:04.328Z,16.50
2022-12-25T10:29:01.994Z,9.20
2022-12-25T10:31:59.446Z,6.50
2022-12-25T10:34:57.181Z,6.60
2022-12-25T10:37:55.444Z,7.60
2022-12-25T10:40:53.130Z,11.00
2022-12-25T10:43:50.765Z,4.60
2022-12-25T10:46:48.228Z,3.60
2022-12-25T10:49:45.910Z,6.90
2022-12-25T10:52:43.335Z,4.40
2022-12-25T10:55:40.948Z,6.80
2022-12-25T10:58:38.387Z,4.60
2022-12-25T11:01:36.185Z,8.60
2022-12-25T11:04:33.777Z,9.30
2022-12-25T11:07:31.216Z,4.60
2022-12-25T11:10:28.948Z,6.10
2022-12-25T11:13:27.075Z,5.50
2022-12-25T11:16:24.866Z,5.50
2022-12-25T11:19:22.427Z,5.60
2022-12-25T11:22:20.103Z,7.20
2022-12-25T11:25:17.611Z,5.90
2022-12-25T11:28:15.068Z,14.50
2022-12-25T11:31:13.106Z,5.50
2022-12-25T11:34:11.473Z,6.10
2022-12-25T11:37:09.464Z,4.20
2022-12-25T11:40:07.516Z,7.30
2022-12-25T11:43:08.191Z,5.90
2022-12-25T11:46:05.910Z,7.10
2022-12-25T11:49:03.719Z,8.60
2022-12-25T11:52:01.193Z,8.10
2022-12-25T11:54:58.925Z,5.40
2022-12-25T11:57:56.700Z,5.80
2022-12-25T12:00:54.175Z,4.40
2022-12-25T12:03:51.980Z,9.80
2022-12-25T12:06:49.454Z,6.50
2022-12-25T12:09:47.144Z,9.70
2022-12-25T12:12:48.840Z,4.80
2022-12-25T12:15:46.977Z,6.60
2022-12-25T12:18:50.337Z,6.30
2022-12-25T12:21:48.468Z,7.40
2022-12-25T12:24:46.117Z,7.90
2022-12-25T12:27:43.565Z,8.80
2022-12-25T12:30:41.116Z,7.70
2022-12-25T12:33:38.553Z,7.20
2022-12-25T12:36:37.003Z,6.10
2022-12-25T12:39:34.557Z,4.80
2022-12-25T12:42:32.333Z,8.80
2022-12-25T12:45:29.802Z,7.70
2022-12-25T12:48:27.656Z,5.20
2022-12-25T12:51:25.420Z,6.30
2022-12-25T12:54:22.869Z,6.20
2022-12-25T12:57:20.636Z,5.00
2022-12-25T13:00:18.091Z,4.20
2022-12-25T13:03:15.814Z,6.80
2022-12-25T13:06:13.288Z,5.70
2022-12-25T13:09:11.067Z,4.70
2022-12-25T13:12:08.519Z,4.40
2022-12-25T13:15:06.452Z,6.90
2022-12-25T13:18:03.868Z,4.10
2022-12-25T13:21:01.668Z,4.40
2022-12-25T13:23:59.451Z,4.90
2022-12-25T13:26:56.931Z,4.90
2022-12-25T13:29:54.657Z,5.00
2022-12-25T13:32:52.172Z,5.40
2022-12-25T13:35:49.795Z,3.90
2022-12-25T13:38:47.647Z,4.80
2022-12-25T13:42:02.699Z,5.90
2022-12-25T13:45:00.384Z,6.60
2022-12-25T13:47:57.947Z,5.90
2022-12-25T13:50:56.185Z,5.00
2022-12-25T13:53:53.625Z,5.60
2022-12-25T13:56:51.352Z,6.00
2022-12-25T13:59:49.110Z,6.40
2022-12-25T14:02:46.723Z,5.80
2022-12-25T14:05:44.427Z,6.60
2022-12-25T14:08:41.846Z,7.80
2022-12-25T14:11:39.565Z,6.30
2022-12-25T14:14:37.025Z,7.40
2022-12-25T14:17:34.628Z,12.80
2022-12-25T14:20:32.052Z,6.70
2022-12-25T14:23:29.821Z,6.10
2022-12-25T14:26:27.276Z,6.70
2022-12-25T14:29:28.303Z,6.80
2022-12-25T14:32:26.280Z,9.50
2022-12-25T14:35:23.992Z,8.60
2022-12-25T14:38:21.801Z,9.80
2022-12-25T14:41:25.770Z,9.20
2022-12-25T14:44:23.901Z,11.20
2022-12-25T14:47:21.604Z,9.90
2022-12-25T14:50:19.345Z,11.80
2022-12-25T14:53:16.776Z,10.00
2022-12-25T14:56:15.182Z,12.70
2022-12-25T14:59:12.614Z,11.40
2022-12-25T15:02:15.086Z,9.30
2022-12-25T15:05:16.630Z,8.70
2022-12-25T15:08:14.052Z,10.00
2022-12-25T15:11:11.803Z,7.80
2022-12-25T15:14:09.218Z,6.90
2022-12-25T15:17:06.977Z,9.00
2022-12-25T15:20:06.484Z,8.00
2022-12-25T15:23:19.328Z,9.10
2022-12-25T15:26:17.840Z,10.40
2022-12-25T15:29:15.271Z,10.50
2022-12-25T15:32:12.848Z,10.00
2022-12-25T15:35:10.262Z,11.80
2022-12-25T15:38:07.990Z,11.60
2022-12-25T15:41:05.407Z,12.40
2022-12-25T15:44:03.124Z,12.20
2022-12-25T15:47:00.526Z,12.00
2022-12-25T15:49:58.223Z,10.30
2022-12-25T15:52:55.623Z,10.80
2022-12-25T15:55:53.242Z,9.60
2022-12-25T15:58:50.875Z,8.80
2022-12-25T16:01:48.458Z,10.10
2022-12-25T16:04:46.235Z,14.20
2022-12-25T16:07:43.687Z,10.50
2022-12-25T16:10:41.356Z,10.10
2022-12-25T16:13:38.769Z,14.60
2022-12-25T16:16:36.589Z,14.90
2022-12-25T16:19:34.047Z,12.00
2022-12-25T16:22:32.329Z,13.50
2022-12-25T16:25:30.121Z,15.40
2022-12-25T16:28:27.538Z,14.70
2022-12-25T16:31:25.344Z,17.00
2022-12-25T16:34:22.911Z,12.70
2022-12-25T16:37:20.440Z,16.80
2022-12-25T16:40:18.077Z,15.90
2022-12-25T16:43:21.924Z,13.70
2022-12-25T16:46:21.525Z,14.40
2022-12-25T16:49:19.260Z,15.50
2022-12-25T16:52:16.984Z,19.30
2022-12-25T16:55:14.408Z,22.90
2022-12-25T16:58:12.215Z,18.90
2022-12-25T17:01:09.678Z,19.70
2022-12-25T17:04:07.404Z,19.30
2022-12-25T17:07:04.917Z,18.70
2022-12-25T17:10:03.979Z,14.30
2022-12-25T17:13:01.388Z,16.10
2022-12-25T17:15:59.250Z,16.60
2022-12-25T17:18:57.022Z,16.80
2022-12-25T17:21:54.853Z,16.00
2022-12-25T17:24:52.523Z,18.30
2022-12-25T17:27:49.956Z,17.40
2022-12-25T17:30:47.743Z,16.00
2022-12-25T17:33:45.177Z,18.20
2022-12-25T17:36:42.990Z,19.50
2022-12-25T17:39:40.754Z,21.10
2022-12-25T17:42:38.225Z,21.60
2022-12-25T17:45:35.997Z,21.70
2022-12-25T17:48:33.441Z,20.00
2022-12-25T17:51:31.233Z,23.10
2022-12-25T17:54:28.655Z,16.10
2022-12-25T17:57:26.435Z,16.10
2022-12-25T18:00:23.919Z,18.60
2022-12-25T18:03:21.715Z,16.70
2022-12-25T18:06:19.314Z,17.80
2022-12-25T18:09:16.995Z,8.90
2022-12-25T18:12:15.416Z,15.40
2022-12-25T18:15:13.025Z,15.80
2022-12-25T18:18:10.656Z,19.20
2022-12-25T18:21:08.107Z,17.70
2022-12-25T18:24:05.948Z,19.80
2022-12-25T18:27:03.392Z,17.30
2022-12-25T18:30:00.841Z,19.70
2022-12-25T18:32:58.281Z,14.20
2022-12-25T18:35:55.971Z,17.10
2022-12-25T18:38:53.662Z,15.70
2022-12-25T18:42:08.689Z,19.40
2022-12-25T18:45:06.476Z,20.50
2022-12-25T18:48:06.559Z,15.80
2022-12-25T18:51:04.398Z,16.70
2022-12-25T18:54:02.663Z,16.30
2022-12-25T18:57:05.404Z,16.30
2022-12-25T19:00:05.082Z,16.60
2022-12-25T19:03:03.802Z,18.10
2022-12-25T19:06:02.023Z,18.30
2022-12-25T19:09:00.263Z,15.40
2022-12-25T19:11:58.263Z,19.60
2022-12-25T19:14:55.690Z,19.40
2022-12-25T19:17:53.548Z,15.40
2022-12-25T19:20:51.073Z,15.40
2022-12-25T19:23:48.806Z,15.80
2022-12-25T19:26:46.247Z,18.00
2022-12-25T19:29:44.177Z,21.90
2022-12-25T19:32:41.712Z,20.40
2022-12-25T19:35:39.656Z,21.20
2022-12-25T19:38:37.262Z,18.70
2022-12-25T19:41:35.010Z,20.80
2022-12-25T19:44:32.438Z,18.30
2022-12-25T19:47:30.036Z,16.10
2022-12-25T19:50:28.849Z,17.70
2022-12-25T19:53:27.313Z,16.50
2022-12-25T19:56:25.092Z,16.70
2022-12-25T19:59:23.378Z,20.90
2022-12-25T20:02:21.486Z,16.70
2022-12-25T20:05:19.140Z,16.80
2022-12-25T20:08:17.891Z,15.90
2022-12-25T20:11:16.085Z,14.70
2022-12-25T20:14:13.770Z,17.90
2022-12-25T20:17:15.791Z,17.20
2022-12-25T20:20:14.717Z,20.20
2022-12-25T20:23:12.490Z,19.40
2022-12-25T20:26:11.351Z,21.20
2022-12-25T20:29:09.252Z,15.90
2022-12-25T20:32:07.336Z,17.20
2022-12-25T20:35:05.548Z,15.70
2022-12-25T20:38:03.223Z,18.80
2022-12-25T20:41:26.309Z,19.30
2022-12-25T20:44:19.761Z,16.50
2022-12-25T20:47:17.908Z,20.00
2022-12-25T20:50:15.597Z,19.10
2022-12-25T20:53:13.366Z,19.70
2022-12-25T20:56:11.123Z,16.00
2022-12-25T20:59:09.075Z,17.50
2022-12-25T21:02:07.032Z,15.20
2022-12-25T21:05:05.126Z,15.00
2022-12-25T21:08:02.872Z,16.10
2022-12-25T21:11:01.269Z,17.50
2022-12-25T21:13:59.064Z,18.70
2022-12-25T21:16:58.096Z,19.60
2022-12-25T21:19:55.593Z,16.20
2022-12-25T21:22:53.309Z,17.30
2022-12-25T21:25:51.068Z,18.70
2022-12-25T21:28:48.824Z,18.40
2022-12-25T21:32:00.128Z,17.80
2022-12-25T21:34:57.751Z,16.90
2022-12-25T21:37:55.188Z,16.50
2022-12-25T21:40:52.871Z,16.60
2022-12-25T21:43:50.860Z,17.30
2022-12-25T21:46:48.443Z,19.40
2022-12-25T21:50:04.442Z,15.80
2022-12-25T21:53:01.869Z,13.70
2022-12-25T21:55:59.663Z,17.20
2022-12-25T21:58:57.101Z,15.20
2022-12-25T22:01:54.962Z,15.10
2022-12-25T22:04:52.745Z,12.80
2022-12-25T22:07:50.209Z,17.60
2022-12-25T22:10:47.894Z,16.60
2022-12-25T22:13:59.186Z,16.20
2022-12-25T22:17:14.546Z,15.60
2022-12-25T22:20:12.322Z,16.40
2022-12-25T22:23:09.770Z,16.30
2022-12-25T22:26:07.524Z,17.90
2022-12-25T22:29:04.980Z,19.20
2022-12-25T22:32:02.765Z,19.80
2022-12-25T22:35:00.578Z,20.40
2022-12-25T22:37:58.287Z,20.20
2022-12-25T22:40:55.918Z,21.50
2022-12-25T22:44:16.616Z,19.20
2022-12-25T22:47:11.000Z,19.70
2022-12-25T22:50:08.438Z,17.40
2022-12-25T22:53:06.196Z,19.40
2022-12-25T22:56:03.624Z,17.60
2022-12-25T22:59:01.278Z,16.80
2022-12-25T23:01:58.816Z,16.30
2022-12-25T23:04:56.642Z,17.60
2022-12-25T23:07:54.299Z,18.80
2022-12-25T23:10:51.735Z,16.80
2022-12-25T23:14:07.445Z,15.50
2022-12-25T23:17:04.877Z,14.90
2022-12-25T23:20:20.627Z,15.10
2022-12-25T23:23:35.972Z,14.40
2022-12-25T23:26:33.393Z,13.30
2022-12-25T23:29:40.408Z,14.60
2022-12-25T23:32:37.842Z,17.80
2022-12-25T23:35:35.570Z,15.80
2022-12-25T23:38:33.003Z,17.80
2022-12-25T23:41:30.709Z,18.10
2022-12-25T23:44:28.134Z,21.50
2022-12-25T23:47:25.886Z,13.30
2022-12-25T23:50:23.317Z,13.10
2022-12-25T23:53:20.978Z,16.30
2022-12-25T23:56:18.591Z,23.80
2022-12-25T23:59:16.034Z,22.50
